sensor_id;sensor_type;location;lat;lon;timestamp;P1;durP1;ratioP1;P2;durP2;ratioP2
36745;SDS011;22715;52.182;21.206;2023-05-10T00:02:16;5.90;;;3.85;;
36745;SDS011;22715;52.182;21.206;2023-05-10T00:07:10;6.70;;;4.28;;
36745;SDS011;22715;52.182;21.206;2023-05-10T00:09:36;6.30;;;4.57;;
36745;SDS011;22715;52.182;21.206;2023-05-10T00:12:01;7.80;;;4.22;;
36745;SDS011;22715;52.182;21.206;2023-05-10T00:14:27;10.85;;;4.75;;
36745;SDS011;22715;52.182;21.206;2023-05-10T00:16:52;8.43;;;3.70;;
36745;SDS011;22715;52.182;21.206;2023-05-10T00:19:21;5.07;;;4.38;;
36745;SDS011;22715;52.182;21.206;2023-05-10T00:21:46;7.18;;;3.80;;
36745;SDS011;22715;52.182;21.206;2023-05-10T00:24:12;5.43;;;3.75;;
36745;SDS011;22715;52.182;21.206;2023-05-10T00:26:37;6.55;;;3.60;;
36745;SDS011;22715;52.182;21.206;2023-05-10T00:29:02;6.63;;;3.80;;
36745;SDS011;22715;52.182;21.206;2023-05-10T00:31:28;7.50;;;3.90;;
36745;SDS011;22715;52.182;21.206;2023-05-10T00:33:53;6.03;;;3.83;;
36745;SDS011;22715;52.182;21.206;2023-05-10T00:36:18;6.10;;;4.10;;
36745;SDS011;22715;52.182;21.206;2023-05-10T00:38:44;6.75;;;3.30;;
36745;SDS011;22715;52.182;21.206;2023-05-10T00:41:09;6.95;;;4.10;;
36745;SDS011;22715;52.182;21.206;2023-05-10T00:43:38;7.97;;;5.18;;
36745;SDS011;22715;52.182;21.206;2023-05-10T00:46:04;5.88;;;3.83;;
36745;SDS011;22715;52.182;21.206;2023-05-10T00:48:29;6.05;;;4.00;;
36745;SDS011;22715;52.182;21.206;2023-05-10T00:51:02;8.98;;;5.20;;
36745;SDS011;22715;52.182;21.206;2023-05-10T00:53:27;6.65;;;4.13;;
36745;SDS011;22715;52.182;21.206;2023-05-10T00:55:52;3.38;;;3.00;;
36745;SDS011;22715;52.182;21.206;2023-05-10T00:58:18;6.28;;;3.38;;
36745;SDS011;22715;52.182;21.206;2023-05-10T01:00:43;3.88;;;2.95;;
36745;SDS011;22715;52.182;21.206;2023-05-10T01:03:12;8.15;;;3.55;;
36745;SDS011;22715;52.182;21.206;2023-05-10T01:05:38;7.55;;;3.95;;
36745;SDS011;22715;52.182;21.206;2023-05-10T01:08:03;6.10;;;4.00;;
36745;SDS011;22715;52.182;21.206;2023-05-10T01:10:31;5.65;;;2.80;;
36745;SDS011;22715;52.182;21.206;2023-05-10T01:12:57;3.50;;;3.10;;
36745;SDS011;22715;52.182;21.206;2023-05-10T01:15:24;4.53;;;3.38;;
36745;SDS011;22715;52.182;21.206;2023-05-10T01:17:53;5.07;;;3.38;;
36745;SDS011;22715;52.182;21.206;2023-05-10T01:20:19;6.88;;;4.03;;
36745;SDS011;22715;52.182;21.206;2023-05-10T01:33:35;9.57;;;3.20;;
36745;SDS011;22715;52.182;21.206;2023-05-10T01:44:18;5.38;;;3.22;;
36745;SDS011;22715;52.182;21.206;2023-05-10T01:46:48;7.47;;;3.53;;
36745;SDS011;22715;52.182;21.206;2023-05-10T01:49:26;6.22;;;3.53;;
36745;SDS011;22715;52.182;21.206;2023-05-10T01:51:54;5.43;;;3.25;;
36745;SDS011;22715;52.182;21.206;2023-05-10T01:54:21;7.00;;;3.50;;
36745;SDS011;22715;52.182;21.206;2023-05-10T01:56:55;4.82;;;3.17;;
36745;SDS011;22715;52.182;21.206;2023-05-10T01:59:28;4.47;;;3.15;;
36745;SDS011;22715;52.182;21.206;2023-05-10T02:01:54;5.35;;;2.80;;
36745;SDS011;22715;52.182;21.206;2023-05-10T02:04:22;9.68;;;2.95;;
36745;SDS011;22715;52.182;21.206;2023-05-10T02:06:48;7.55;;;4.03;;
36745;SDS011;22715;52.182;21.206;2023-05-10T02:09:15;5.13;;;3.42;;
36745;SDS011;22715;52.182;21.206;2023-05-10T02:11:42;6.97;;;3.78;;
36745;SDS011;22715;52.182;21.206;2023-05-10T02:14:08;6.93;;;3.60;;
36745;SDS011;22715;52.182;21.206;2023-05-10T02:16:36;5.97;;;3.40;;
36745;SDS011;22715;52.182;21.206;2023-05-10T02:19:03;5.25;;;3.42;;
36745;SDS011;22715;52.182;21.206;2023-05-10T02:24:40;5.75;;;3.67;;
36745;SDS011;22715;52.182;21.206;2023-05-10T02:27:15;9.38;;;3.53;;
36745;SDS011;22715;52.182;21.206;2023-05-10T02:29:40;4.97;;;2.58;;
36745;SDS011;22715;52.182;21.206;2023-05-10T02:32:19;5.18;;;2.95;;
36745;SDS011;22715;52.182;21.206;2023-05-10T02:34:45;6.43;;;2.90;;
36745;SDS011;22715;52.182;21.206;2023-05-10T02:37:25;4.25;;;3.10;;
36745;SDS011;22715;52.182;21.206;2023-05-10T02:39:52;6.55;;;3.28;;
36745;SDS011;22715;52.182;21.206;2023-05-10T02:42:29;5.20;;;3.03;;
36745;SDS011;22715;52.182;21.206;2023-05-10T02:44:56;4.97;;;3.03;;
36745;SDS011;22715;52.182;21.206;2023-05-10T02:47:31;6.38;;;3.63;;
36745;SDS011;22715;52.182;21.206;2023-05-10T02:49:56;5.65;;;3.83;;
36745;SDS011;22715;52.182;21.206;2023-05-10T02:52:25;5.43;;;3.47;;
36745;SDS011;22715;52.182;21.206;2023-05-10T02:54:52;6.22;;;3.33;;
36745;SDS011;22715;52.182;21.206;2023-05-10T02:57:24;4.70;;;3.17;;
36745;SDS011;22715;52.182;21.206;2023-05-10T03:02:36;8.40;;;3.38;;
36745;SDS011;22715;52.182;21.206;2023-05-10T03:05:01;4.97;;;3.00;;
36745;SDS011;22715;52.182;21.206;2023-05-10T03:07:28;5.80;;;2.67;;
36745;SDS011;22715;52.182;21.206;2023-05-10T03:09:54;6.20;;;3.40;;
36745;SDS011;22715;52.182;21.206;2023-05-10T03:17:52;5.38;;;2.95;;
36745;SDS011;22715;52.182;21.206;2023-05-10T03:20:29;5.82;;;2.97;;
36745;SDS011;22715;52.182;21.206;2023-05-10T03:23:00;6.07;;;3.40;;
36745;SDS011;22715;52.182;21.206;2023-05-10T03:25:36;5.50;;;3.00;;
36745;SDS011;22715;52.182;21.206;2023-05-10T03:28:02;7.60;;;3.38;;
36745;SDS011;22715;52.182;21.206;2023-05-10T03:30:29;5.78;;;3.60;;
36745;SDS011;22715;52.182;21.206;2023-05-10T03:35:49;5.05;;;2.97;;
36745;SDS011;22715;52.182;21.206;2023-05-10T03:38:15;5.38;;;3.63;;
36745;SDS011;22715;52.182;21.206;2023-05-10T03:40:40;4.45;;;2.60;;
36745;SDS011;22715;52.182;21.206;2023-05-10T03:43:07;5.57;;;3.50;;
36745;SDS011;22715;52.182;21.206;2023-05-10T03:45:32;6.15;;;3.53;;
36745;SDS011;22715;52.182;21.206;2023-05-10T03:51:04;7.43;;;2.97;;
36745;SDS011;22715;52.182;21.206;2023-05-10T03:53:29;7.40;;;3.53;;
36745;SDS011;22715;52.182;21.206;2023-05-10T03:55:54;4.28;;;3.00;;
36745;SDS011;22715;52.182;21.206;2023-05-10T03:58:20;4.82;;;2.38;;
36745;SDS011;22715;52.182;21.206;2023-05-10T04:00:45;6.60;;;3.65;;
36745;SDS011;22715;52.182;21.206;2023-05-10T04:03:14;4.93;;;2.63;;
36745;SDS011;22715;52.182;21.206;2023-05-10T04:05:39;3.35;;;2.92;;
36745;SDS011;22715;52.182;21.206;2023-05-10T04:08:05;9.07;;;3.63;;
36745;SDS011;22715;52.182;21.206;2023-05-10T04:10:32;7.55;;;3.63;;
36745;SDS011;22715;52.182;21.206;2023-05-10T04:12:57;5.00;;;2.85;;
36745;SDS011;22715;52.182;21.206;2023-05-10T04:15:23;7.47;;;3.78;;
36745;SDS011;22715;52.182;21.206;2023-05-10T04:17:48;5.43;;;3.40;;
36745;SDS011;22715;52.182;21.206;2023-05-10T04:20:14;6.82;;;2.67;;
36745;SDS011;22715;52.182;21.206;2023-05-10T04:22:39;8.90;;;3.17;;
36745;SDS011;22715;52.182;21.206;2023-05-10T04:25:05;7.38;;;3.00;;
36745;SDS011;22715;52.182;21.206;2023-05-10T04:27:31;7.13;;;3.72;;
36745;SDS011;22715;52.182;21.206;2023-05-10T04:29:56;6.13;;;3.58;;
36745;SDS011;22715;52.182;21.206;2023-05-10T04:32:22;6.53;;;2.60;;
36745;SDS011;22715;52.182;21.206;2023-05-10T04:34:47;4.03;;;2.67;;
36745;SDS011;22715;52.182;21.206;2023-05-10T04:37:12;5.68;;;2.55;;
36745;SDS011;22715;52.182;21.206;2023-05-10T04:39:38;5.80;;;3.10;;
36745;SDS011;22715;52.182;21.206;2023-05-10T04:42:10;5.90;;;3.17;;
36745;SDS011;22715;52.182;21.206;2023-05-10T04:44:36;25.27;;;4.63;;
36745;SDS011;22715;52.182;21.206;2023-05-10T04:47:08;4.80;;;2.83;;
36745;SDS011;22715;52.182;21.206;2023-05-10T04:49:34;3.72;;;3.10;;
36745;SDS011;22715;52.182;21.206;2023-05-10T04:51:59;4.07;;;2.55;;
36745;SDS011;22715;52.182;21.206;2023-05-10T04:54:26;5.28;;;2.80;;
36745;SDS011;22715;52.182;21.206;2023-05-10T04:56:51;4.03;;;2.88;;
36745;SDS011;22715;52.182;21.206;2023-05-10T04:59:17;6.20;;;3.67;;
36745;SDS011;22715;52.182;21.206;2023-05-10T05:01:55;3.10;;;2.00;;
36745;SDS011;22715;52.182;21.206;2023-05-10T05:04:22;4.95;;;3.28;;
36745;SDS011;22715;52.182;21.206;2023-05-10T05:06:49;6.85;;;2.78;;
36745;SDS011;22715;52.182;21.206;2023-05-10T05:09:19;6.68;;;3.05;;
36745;SDS011;22715;52.182;21.206;2023-05-10T05:11:55;5.13;;;2.90;;
36745;SDS011;22715;52.182;21.206;2023-05-10T05:14:20;6.30;;;3.92;;
36745;SDS011;22715;52.182;21.206;2023-05-10T05:16:53;4.93;;;2.85;;
36745;SDS011;22715;52.182;21.206;2023-05-10T05:19:18;5.10;;;2.33;;
36745;SDS011;22715;52.182;21.206;2023-05-10T05:21:57;4.78;;;3.03;;
36745;SDS011;22715;52.182;21.206;2023-05-10T05:24:22;5.65;;;3.05;;
36745;SDS011;22715;52.182;21.206;2023-05-10T05:26:48;8.43;;;2.90;;
36745;SDS011;22715;52.182;21.206;2023-05-10T05:29:13;3.85;;;2.50;;
36745;SDS011;22715;52.182;21.206;2023-05-10T05:31:38;3.78;;;2.13;;
36745;SDS011;22715;52.182;21.206;2023-05-10T05:34:07;4.07;;;2.50;;
36745;SDS011;22715;52.182;21.206;2023-05-10T05:36:35;6.45;;;2.83;;
36745;SDS011;22715;52.182;21.206;2023-05-10T05:39:01;5.60;;;2.75;;
36745;SDS011;22715;52.182;21.206;2023-05-10T05:41:29;5.15;;;2.42;;
36745;SDS011;22715;52.182;21.206;2023-05-10T05:43:54;3.38;;;2.35;;
36745;SDS011;22715;52.182;21.206;2023-05-10T05:46:20;5.72;;;2.88;;
36745;SDS011;22715;52.182;21.206;2023-05-10T05:48:51;5.20;;;3.42;;
36745;SDS011;22715;52.182;21.206;2023-05-10T05:51:16;11.23;;;3.45;;
36745;SDS011;22715;52.182;21.206;2023-05-10T05:53:42;3.75;;;2.25;;
36745;SDS011;22715;52.182;21.206;2023-05-10T05:56:07;6.63;;;2.78;;
36745;SDS011;22715;52.182;21.206;2023-05-10T05:58:34;4.63;;;2.22;;
36745;SDS011;22715;52.182;21.206;2023-05-10T06:00:59;4.65;;;2.67;;
36745;SDS011;22715;52.182;21.206;2023-05-10T06:03:24;5.32;;;2.15;;
36745;SDS011;22715;52.182;21.206;2023-05-10T06:05:50;4.78;;;2.53;;
36745;SDS011;22715;52.182;21.206;2023-05-10T06:08:15;2.78;;;2.05;;
36745;SDS011;22715;52.182;21.206;2023-05-10T06:10:47;3.35;;;2.10;;
36745;SDS011;22715;52.182;21.206;2023-05-10T06:13:18;2.63;;;2.28;;
36745;SDS011;22715;52.182;21.206;2023-05-10T06:15:46;3.95;;;2.25;;
36745;SDS011;22715;52.182;21.206;2023-05-10T06:18:12;5.57;;;2.28;;
36745;SDS011;22715;52.182;21.206;2023-05-10T06:20:37;3.55;;;3.05;;
36745;SDS011;22715;52.182;21.206;2023-05-10T06:23:02;4.50;;;2.63;;
36745;SDS011;22715;52.182;21.206;2023-05-10T06:25:30;2.70;;;2.08;;
36745;SDS011;22715;52.182;21.206;2023-05-10T06:27:56;3.28;;;2.17;;
36745;SDS011;22715;52.182;21.206;2023-05-10T06:32:58;3.88;;;2.15;;
36745;SDS011;22715;52.182;21.206;2023-05-10T06:35:24;2.47;;;2.28;;
36745;SDS011;22715;52.182;21.206;2023-05-10T06:37:50;4.38;;;2.85;;
36745;SDS011;22715;52.182;21.206;2023-05-10T06:40:16;4.82;;;1.67;;
36745;SDS011;22715;52.182;21.206;2023-05-10T06:42:42;3.45;;;2.42;;
36745;SDS011;22715;52.182;21.206;2023-05-10T06:45:07;2.38;;;1.70;;
36745;SDS011;22715;52.182;21.206;2023-05-10T06:47:33;5.70;;;2.20;;
36745;SDS011;22715;52.182;21.206;2023-05-10T06:49:59;5.68;;;1.80;;
36745;SDS011;22715;52.182;21.206;2023-05-10T06:52:26;5.78;;;1.92;;
36745;SDS011;22715;52.182;21.206;2023-05-10T06:54:52;2.15;;;1.60;;
36745;SDS011;22715;52.182;21.206;2023-05-10T06:57:17;2.78;;;1.73;;
36745;SDS011;22715;52.182;21.206;2023-05-10T06:59:43;3.83;;;1.95;;
36745;SDS011;22715;52.182;21.206;2023-05-10T07:02:08;2.08;;;1.83;;
36745;SDS011;22715;52.182;21.206;2023-05-10T07:04:40;1.92;;;1.60;;
36745;SDS011;22715;52.182;21.206;2023-05-10T07:07:06;2.33;;;1.67;;
36745;SDS011;22715;52.182;21.206;2023-05-10T07:09:34;2.75;;;1.67;;
36745;SDS011;22715;52.182;21.206;2023-05-10T07:11:59;2.70;;;2.15;;
36745;SDS011;22715;52.182;21.206;2023-05-10T07:14:24;3.70;;;2.33;;
36745;SDS011;22715;52.182;21.206;2023-05-10T07:16:50;5.07;;;2.83;;
36745;SDS011;22715;52.182;21.206;2023-05-10T07:19:15;9.93;;;1.70;;
36745;SDS011;22715;52.182;21.206;2023-05-10T07:21:40;1.95;;;1.20;;
36745;SDS011;22715;52.182;21.206;2023-05-10T07:24:08;3.38;;;1.50;;
36745;SDS011;22715;52.182;21.206;2023-05-10T07:26:52;1.77;;;1.38;;
36745;SDS011;22715;52.182;21.206;2023-05-10T07:29:18;1.60;;;1.42;;
36745;SDS011;22715;52.182;21.206;2023-05-10T07:31:43;2.20;;;1.58;;
36745;SDS011;22715;52.182;21.206;2023-05-10T07:34:08;3.45;;;1.52;;
36745;SDS011;22715;52.182;21.206;2023-05-10T07:36:34;2.17;;;1.98;;
36745;SDS011;22715;52.182;21.206;2023-05-10T07:39:00;3.67;;;1.00;;
36745;SDS011;22715;52.182;21.206;2023-05-10T07:41:25;4.50;;;1.73;;
36745;SDS011;22715;52.182;21.206;2023-05-10T07:43:50;3.00;;;1.10;;
36745;SDS011;22715;52.182;21.206;2023-05-10T07:46:16;1.27;;;1.17;;
36745;SDS011;22715;52.182;21.206;2023-05-10T07:48:41;2.97;;;1.48;;
36745;SDS011;22715;52.182;21.206;2023-05-10T07:51:10;2.38;;;1.60;;
36745;SDS011;22715;52.182;21.206;2023-05-10T07:53:40;2.92;;;1.25;;
36745;SDS011;22715;52.182;21.206;2023-05-10T07:56:22;4.20;;;1.50;;
36745;SDS011;22715;52.182;21.206;2023-05-10T07:58:47;3.60;;;1.95;;
36745;SDS011;22715;52.182;21.206;2023-05-10T08:01:14;2.83;;;1.65;;
36745;SDS011;22715;52.182;21.206;2023-05-10T08:03:40;2.55;;;1.05;;
36745;SDS011;22715;52.182;21.206;2023-05-10T08:06:05;6.45;;;1.45;;
36745;SDS011;22715;52.182;21.206;2023-05-10T08:08:31;2.08;;;1.15;;
36745;SDS011;22715;52.182;21.206;2023-05-10T08:10:56;3.50;;;1.33;;
36745;SDS011;22715;52.182;21.206;2023-05-10T08:13:21;1.63;;;1.30;;
36745;SDS011;22715;52.182;21.206;2023-05-10T08:15:49;2.65;;;1.52;;
36745;SDS011;22715;52.182;21.206;2023-05-10T08:18:17;1.70;;;1.25;;
36745;SDS011;22715;52.182;21.206;2023-05-10T08:20:45;6.00;;;1.10;;
36745;SDS011;22715;52.182;21.206;2023-05-10T08:23:13;2.45;;;1.70;;
36745;SDS011;22715;52.182;21.206;2023-05-10T08:25:41;2.60;;;1.55;;
36745;SDS011;22715;52.182;21.206;2023-05-10T08:28:06;4.10;;;2.17;;
36745;SDS011;22715;52.182;21.206;2023-05-10T08:30:32;8.38;;;1.75;;
36745;SDS011;22715;52.182;21.206;2023-05-10T08:32:58;1.20;;;1.10;;
36745;SDS011;22715;52.182;21.206;2023-05-10T08:35:23;2.90;;;1.35;;
36745;SDS011;22715;52.182;21.206;2023-05-10T08:37:50;3.53;;;1.55;;
36745;SDS011;22715;52.182;21.206;2023-05-10T08:40:16;1.95;;;1.08;;
36745;SDS011;22715;52.182;21.206;2023-05-10T08:42:45;2.88;;;1.52;;
36745;SDS011;22715;52.182;21.206;2023-05-10T08:45:19;2.50;;;1.35;;
36745;SDS011;22715;52.182;21.206;2023-05-10T08:47:54;2.97;;;2.22;;
36745;SDS011;22715;52.182;21.206;2023-05-10T08:50:19;2.55;;;1.25;;
36745;SDS011;22715;52.182;21.206;2023-05-10T08:55:41;2.45;;;1.02;;
36745;SDS011;22715;52.182;21.206;2023-05-10T08:58:10;3.28;;;1.60;;
36745;SDS011;22715;52.182;21.206;2023-05-10T09:00:36;6.93;;;2.88;;
36745;SDS011;22715;52.182;21.206;2023-05-10T09:03:03;1.40;;;1.20;;
36745;SDS011;22715;52.182;21.206;2023-05-10T09:05:31;5.78;;;1.70;;
36745;SDS011;22715;52.182;21.206;2023-05-10T09:07:57;1.30;;;1.15;;
36745;SDS011;22715;52.182;21.206;2023-05-10T09:10:23;2.90;;;1.48;;
36745;SDS011;22715;52.182;21.206;2023-05-10T09:12:51;5.35;;;1.50;;
36745;SDS011;22715;52.182;21.206;2023-05-10T09:15:16;2.20;;;1.50;;
36745;SDS011;22715;52.182;21.206;2023-05-10T09:17:45;1.02;;;1.00;;
36745;SDS011;22715;52.182;21.206;2023-05-10T09:20:11;1.83;;;1.40;;
36745;SDS011;22715;52.182;21.206;2023-05-10T09:22:36;1.77;;;1.25;;
36745;SDS011;22715;52.182;21.206;2023-05-10T09:27:35;1.30;;;1.13;;
36745;SDS011;22715;52.182;21.206;2023-05-10T09:31:24;3.50;;;1.67;;
36745;SDS011;22715;52.182;21.206;2023-05-10T09:33:51;3.80;;;1.90;;
36745;SDS011;22715;52.182;21.206;2023-05-10T09:36:18;4.13;;;2.00;;
36745;SDS011;22715;52.182;21.206;2023-05-10T09:38:51;2.92;;;1.52;;
36745;SDS011;22715;52.182;21.206;2023-05-10T09:41:19;4.60;;;2.13;;
36745;SDS011;22715;52.182;21.206;2023-05-10T09:46:16;3.65;;;1.42;;
36745;SDS011;22715;52.182;21.206;2023-05-10T09:48:43;1.42;;;1.17;;
36745;SDS011;22715;52.182;21.206;2023-05-10T09:51:26;1.58;;;1.20;;
36745;SDS011;22715;52.182;21.206;2023-05-10T09:54:12;1.80;;;1.23;;
36745;SDS011;22715;52.182;21.206;2023-05-10T09:56:38;7.82;;;1.75;;
36745;SDS011;22715;52.182;21.206;2023-05-10T09:59:07;1.45;;;1.30;;
36745;SDS011;22715;52.182;21.206;2023-05-10T10:01:41;2.60;;;1.77;;
36745;SDS011;22715;52.182;21.206;2023-05-10T10:04:08;3.70;;;1.55;;
36745;SDS011;22715;52.182;21.206;2023-05-10T10:06:40;3.00;;;1.60;;
36745;SDS011;22715;52.182;21.206;2023-05-10T10:09:06;5.55;;;2.65;;
36745;SDS011;22715;52.182;21.206;2023-05-10T10:11:35;2.58;;;1.65;;
36745;SDS011;22715;52.182;21.206;2023-05-10T10:14:01;3.10;;;1.98;;
36745;SDS011;22715;52.182;21.206;2023-05-10T10:16:42;2.88;;;1.50;;
36745;SDS011;22715;52.182;21.206;2023-05-10T10:19:08;6.40;;;1.50;;
36745;SDS011;22715;52.182;21.206;2023-05-10T10:21:34;3.75;;;1.40;;
36745;SDS011;22715;52.182;21.206;2023-05-10T10:23:59;3.97;;;2.10;;
36745;SDS011;22715;52.182;21.206;2023-05-10T10:26:24;1.83;;;1.25;;
36745;SDS011;22715;52.182;21.206;2023-05-10T10:34:00;2.60;;;1.25;;
36745;SDS011;22715;52.182;21.206;2023-05-10T10:36:48;2.25;;;1.70;;
36745;SDS011;22715;52.182;21.206;2023-05-10T10:39:17;3.60;;;2.10;;
36745;SDS011;22715;52.182;21.206;2023-05-10T10:44:45;2.50;;;1.35;;
36745;SDS011;22715;52.182;21.206;2023-05-10T10:47:21;3.63;;;2.05;;
36745;SDS011;22715;52.182;21.206;2023-05-10T10:52:33;2.25;;;1.52;;
36745;SDS011;22715;52.182;21.206;2023-05-10T10:55:09;3.50;;;2.63;;
36745;SDS011;22715;52.182;21.206;2023-05-10T10:57:45;6.15;;;1.52;;
36745;SDS011;22715;52.182;21.206;2023-05-10T11:07:57;2.60;;;1.50;;
36745;SDS011;22715;52.182;21.206;2023-05-10T11:10:23;3.72;;;1.60;;
36745;SDS011;22715;52.182;21.206;2023-05-10T11:13:02;4.43;;;1.50;;
36745;SDS011;22715;52.182;21.206;2023-05-10T11:15:40;3.00;;;1.83;;
36745;SDS011;22715;52.182;21.206;2023-05-10T11:18:19;7.97;;;1.65;;
36745;SDS011;22715;52.182;21.206;2023-05-10T11:21:08;2.97;;;1.25;;
36745;SDS011;22715;52.182;21.206;2023-05-10T11:23:31;7.80;;;1.98;;
36745;SDS011;22715;52.182;21.206;2023-05-10T11:25:59;1.90;;;1.42;;
36745;SDS011;22715;52.182;21.206;2023-05-10T11:28:25;1.92;;;1.23;;
36745;SDS011;22715;52.182;21.206;2023-05-10T11:30:51;6.25;;;1.40;;
36745;SDS011;22715;52.182;21.206;2023-05-10T11:33:18;3.30;;;1.33;;
36745;SDS011;22715;52.182;21.206;2023-05-10T11:35:47;5.50;;;1.38;;
36745;SDS011;22715;52.182;21.206;2023-05-10T11:38:13;4.45;;;1.25;;
36745;SDS011;22715;52.182;21.206;2023-05-10T11:40:41;4.22;;;1.85;;
36745;SDS011;22715;52.182;21.206;2023-05-10T11:43:08;2.92;;;1.98;;
36745;SDS011;22715;52.182;21.206;2023-05-10T11:45:34;3.28;;;1.55;;
36745;SDS011;22715;52.182;21.206;2023-05-10T11:47:59;4.25;;;1.90;;
36745;SDS011;22715;52.182;21.206;2023-05-10T11:50:25;4.70;;;1.48;;
36745;SDS011;22715;52.182;21.206;2023-05-10T11:52:54;2.25;;;1.40;;
36745;SDS011;22715;52.182;21.206;2023-05-10T11:55:20;2.08;;;1.90;;
36745;SDS011;22715;52.182;21.206;2023-05-10T11:57:53;1.40;;;1.30;;
36745;SDS011;22715;52.182;21.206;2023-05-10T12:00:19;3.50;;;1.58;;
36745;SDS011;22715;52.182;21.206;2023-05-10T12:02:46;5.57;;;1.33;;
36745;SDS011;22715;52.182;21.206;2023-05-10T12:05:11;4.70;;;1.67;;
36745;SDS011;22715;52.182;21.206;2023-05-10T12:07:37;3.17;;;1.80;;
36745;SDS011;22715;52.182;21.206;2023-05-10T12:10:03;5.88;;;1.88;;
36745;SDS011;22715;52.182;21.206;2023-05-10T12:15:21;5.68;;;2.20;;
36745;SDS011;22715;52.182;21.206;2023-05-10T12:17:46;8.00;;;2.20;;
36745;SDS011;22715;52.182;21.206;2023-05-10T12:20:18;3.03;;;1.55;;
36745;SDS011;22715;52.182;21.206;2023-05-10T12:22:44;2.45;;;1.05;;
36745;SDS011;22715;52.182;21.206;2023-05-10T12:25:12;3.35;;;1.30;;
36745;SDS011;22715;52.182;21.206;2023-05-10T12:27:37;4.93;;;1.50;;
36745;SDS011;22715;52.182;21.206;2023-05-10T12:30:03;3.05;;;2.38;;
36745;SDS011;22715;52.182;21.206;2023-05-10T12:32:38;4.35;;;1.63;;
36745;SDS011;22715;52.182;21.206;2023-05-10T12:35:07;1.88;;;1.35;;
36745;SDS011;22715;52.182;21.206;2023-05-10T12:37:33;1.88;;;1.10;;
36745;SDS011;22715;52.182;21.206;2023-05-10T12:40:04;4.35;;;1.20;;
36745;SDS011;22715;52.182;21.206;2023-05-10T12:42:30;3.00;;;2.00;;
36745;SDS011;22715;52.182;21.206;2023-05-10T12:44:56;6.18;;;1.77;;
36745;SDS011;22715;52.182;21.206;2023-05-10T12:47:24;3.53;;;1.65;;
36745;SDS011;22715;52.182;21.206;2023-05-10T12:49:49;1.90;;;1.27;;
36745;SDS011;22715;52.182;21.206;2023-05-10T12:52:21;6.78;;;2.17;;
36745;SDS011;22715;52.182;21.206;2023-05-10T12:54:47;8.30;;;2.83;;
36745;SDS011;22715;52.182;21.206;2023-05-10T12:57:13;2.83;;;1.60;;
36745;SDS011;22715;52.182;21.206;2023-05-10T12:59:38;2.40;;;1.60;;
36745;SDS011;22715;52.182;21.206;2023-05-10T13:02:03;2.63;;;1.73;;
36745;SDS011;22715;52.182;21.206;2023-05-10T13:04:29;3.63;;;1.77;;
36745;SDS011;22715;52.182;21.206;2023-05-10T13:06:54;3.78;;;2.20;;
36745;SDS011;22715;52.182;21.206;2023-05-10T13:09:23;6.03;;;2.55;;
36745;SDS011;22715;52.182;21.206;2023-05-10T13:11:50;5.43;;;1.70;;
36745;SDS011;22715;52.182;21.206;2023-05-10T13:14:15;3.13;;;2.05;;
36745;SDS011;22715;52.182;21.206;2023-05-10T13:16:43;1.77;;;1.33;;
36745;SDS011;22715;52.182;21.206;2023-05-10T13:19:10;8.23;;;1.60;;
36745;SDS011;22715;52.182;21.206;2023-05-10T13:21:36;2.75;;;1.60;;
36745;SDS011;22715;52.182;21.206;2023-05-10T13:24:01;4.35;;;1.52;;
36745;SDS011;22715;52.182;21.206;2023-05-10T13:26:27;4.07;;;1.15;;
36745;SDS011;22715;52.182;21.206;2023-05-10T13:28:53;1.98;;;1.42;;
36745;SDS011;22715;52.182;21.206;2023-05-10T13:31:20;4.45;;;1.88;;
36745;SDS011;22715;52.182;21.206;2023-05-10T13:33:46;3.30;;;1.38;;
36745;SDS011;22715;52.182;21.206;2023-05-10T13:36:12;1.30;;;1.15;;
36745;SDS011;22715;52.182;21.206;2023-05-10T13:38:43;3.00;;;1.63;;
36745;SDS011;22715;52.182;21.206;2023-05-10T13:41:09;7.57;;;1.80;;
36745;SDS011;22715;52.182;21.206;2023-05-10T13:43:34;2.42;;;0.90;;
36745;SDS011;22715;52.182;21.206;2023-05-10T13:46:01;1.27;;;1.05;;
36745;SDS011;22715;52.182;21.206;2023-05-10T13:48:28;4.07;;;1.80;;
36745;SDS011;22715;52.182;21.206;2023-05-10T13:50:53;7.43;;;1.85;;
36745;SDS011;22715;52.182;21.206;2023-05-10T13:53:21;2.10;;;1.27;;
36745;SDS011;22715;52.182;21.206;2023-05-10T13:55:47;5.18;;;1.48;;
36745;SDS011;22715;52.182;21.206;2023-05-10T13:58:12;1.92;;;1.20;;
36745;SDS011;22715;52.182;21.206;2023-05-10T14:00:37;2.03;;;1.20;;
36745;SDS011;22715;52.182;21.206;2023-05-10T14:03:06;2.15;;;1.10;;
36745;SDS011;22715;52.182;21.206;2023-05-10T14:05:34;3.13;;;1.25;;
36745;SDS011;22715;52.182;21.206;2023-05-10T14:07:59;4.25;;;1.80;;
36745;SDS011;22715;52.182;21.206;2023-05-10T14:10:24;1.55;;;1.45;;
36745;SDS011;22715;52.182;21.206;2023-05-10T14:12:50;1.77;;;1.67;;
36745;SDS011;22715;52.182;21.206;2023-05-10T14:15:15;4.88;;;1.75;;
36745;SDS011;22715;52.182;21.206;2023-05-10T14:17:40;3.47;;;1.52;;
36745;SDS011;22715;52.182;21.206;2023-05-10T14:20:06;3.88;;;1.40;;
36745;SDS011;22715;52.182;21.206;2023-05-10T14:22:34;3.28;;;1.85;;
36745;SDS011;22715;52.182;21.206;2023-05-10T14:24:59;7.88;;;1.30;;
36745;SDS011;22715;52.182;21.206;2023-05-10T14:27:26;6.13;;;1.70;;
36745;SDS011;22715;52.182;21.206;2023-05-10T14:29:53;2.28;;;1.15;;
36745;SDS011;22715;52.182;21.206;2023-05-10T14:32:20;2.28;;;1.58;;
36745;SDS011;22715;52.182;21.206;2023-05-10T14:34:45;11.02;;;1.85;;
36745;SDS011;22715;52.182;21.206;2023-05-10T14:37:11;1.40;;;1.25;;
36745;SDS011;22715;52.182;21.206;2023-05-10T14:39:36;2.70;;;1.45;;
36745;SDS011;22715;52.182;21.206;2023-05-10T14:42:02;2.58;;;1.63;;
36745;SDS011;22715;52.182;21.206;2023-05-10T14:44:31;1.50;;;1.27;;
36745;SDS011;22715;52.182;21.206;2023-05-10T14:46:56;2.75;;;1.33;;
36745;SDS011;22715;52.182;21.206;2023-05-10T14:49:22;3.35;;;1.13;;
36745;SDS011;22715;52.182;21.206;2023-05-10T14:51:49;1.42;;;1.30;;
36745;SDS011;22715;52.182;21.206;2023-05-10T14:54:15;5.10;;;1.63;;
36745;SDS011;22715;52.182;21.206;2023-05-10T14:56:40;2.05;;;1.48;;
36745;SDS011;22715;52.182;21.206;2023-05-10T14:59:06;3.15;;;1.38;;
36745;SDS011;22715;52.182;21.206;2023-05-10T15:01:34;4.85;;;1.50;;
36745;SDS011;22715;52.182;21.206;2023-05-10T15:04:02;1.75;;;1.25;;
36745;SDS011;22715;52.182;21.206;2023-05-10T15:06:31;1.33;;;1.20;;
36745;SDS011;22715;52.182;21.206;2023-05-10T15:08:57;5.70;;;1.42;;
36745;SDS011;22715;52.182;21.206;2023-05-10T15:11:22;3.72;;;1.70;;
36745;SDS011;22715;52.182;21.206;2023-05-10T15:13:47;4.13;;;1.98;;
36745;SDS011;22715;52.182;21.206;2023-05-10T15:16:13;4.22;;;1.92;;
36745;SDS011;22715;52.182;21.206;2023-05-10T15:18:41;1.90;;;1.23;;
36745;SDS011;22715;52.182;21.206;2023-05-10T15:21:06;2.92;;;1.63;;
36745;SDS011;22715;52.182;21.206;2023-05-10T15:23:35;9.52;;;2.35;;
36745;SDS011;22715;52.182;21.206;2023-05-10T15:26:02;5.72;;;1.70;;
36745;SDS011;22715;52.182;21.206;2023-05-10T15:28:28;3.67;;;1.17;;
36745;SDS011;22715;52.182;21.206;2023-05-10T15:30:53;1.88;;;1.30;;
36745;SDS011;22715;52.182;21.206;2023-05-10T15:33:18;4.15;;;1.30;;
36745;SDS011;22715;52.182;21.206;2023-05-10T15:35:43;2.85;;;1.00;;
36745;SDS011;22715;52.182;21.206;2023-05-10T15:38:12;2.35;;;1.23;;
36745;SDS011;22715;52.182;21.206;2023-05-10T15:40:40;8.40;;;1.80;;
36745;SDS011;22715;52.182;21.206;2023-05-10T15:43:06;3.17;;;1.60;;
36745;SDS011;22715;52.182;21.206;2023-05-10T15:45:31;2.65;;;1.27;;
36745;SDS011;22715;52.182;21.206;2023-05-10T15:47:57;2.22;;;1.15;;